sensor_id;sensor_type;location;lat;lon;timestamp;P1;durP1;ratioP1;P2;durP2;ratioP2
24157;SDS011;12316;50.904;4.200;2022-10-13T00:02:24;18.98;;;10.70;;
24157;SDS011;12316;50.904;4.200;2022-10-13T00:04:50;18.67;;;10.52;;
24157;SDS011;12316;50.904;4.200;2022-10-13T00:07:15;19.70;;;10.93;;
24157;SDS011;12316;50.904;4.200;2022-10-13T00:09:41;16.55;;;10.57;;
24157;SDS011;12316;50.904;4.200;2022-10-13T00:12:06;17.02;;;11.85;;
24157;SDS011;12316;50.904;4.200;2022-10-13T00:14:32;19.38;;;10.68;;
24157;SDS011;12316;50.904;4.200;2022-10-13T00:16:58;19.90;;;10.30;;
24157;SDS011;12316;50.904;4.200;2022-10-13T00:19:23;16.75;;;10.65;;
24157;SDS011;12316;50.904;4.200;2022-10-13T00:21:49;15.25;;;10.75;;
24157;SDS011;12316;50.904;4.200;2022-10-13T00:24:14;15.85;;;11.00;;
24157;SDS011;12316;50.904;4.200;2022-10-13T00:26:40;16.05;;;10.32;;
24157;SDS011;12316;50.904;4.200;2022-10-13T00:29:05;20.05;;;10.88;;
24157;SDS011;12316;50.904;4.200;2022-10-13T00:31:31;19.35;;;10.90;;
24157;SDS011;12316;50.904;4.200;2022-10-13T00:33:57;16.58;;;10.30;;
24157;SDS011;12316;50.904;4.200;2022-10-13T00:36:24;17.38;;;9.88;;
24157;SDS011;12316;50.904;4.200;2022-10-13T00:38:51;19.17;;;10.93;;
24157;SDS011;12316;50.904;4.200;2022-10-13T00:41:17;19.48;;;10.48;;
24157;SDS011;12316;50.904;4.200;2022-10-13T00:43:57;19.92;;;10.82;;
24157;SDS011;12316;50.904;4.200;2022-10-13T00:46:34;17.60;;;10.70;;
24157;SDS011;12316;50.904;4.200;2022-10-13T00:49:11;17.25;;;10.40;;
24157;SDS011;12316;50.904;4.200;2022-10-13T00:51:38;16.17;;;10.77;;
24157;SDS011;12316;50.904;4.200;2022-10-13T00:54:08;14.95;;;10.10;;
24157;SDS011;12316;50.904;4.200;2022-10-13T00:56:35;17.40;;;10.32;;
24157;SDS011;12316;50.904;4.200;2022-10-13T00:59:02;17.70;;;10.43;;
24157;SDS011;12316;50.904;4.200;2022-10-13T01:01:33;18.45;;;10.10;;
24157;SDS011;12316;50.904;4.200;2022-10-13T01:03:59;15.73;;;9.93;;
24157;SDS011;12316;50.904;4.200;2022-10-13T01:06:25;17.20;;;10.73;;
24157;SDS011;12316;50.904;4.200;2022-10-13T01:08:51;14.75;;;10.30;;
24157;SDS011;12316;50.904;4.200;2022-10-13T01:16:36;16.77;;;10.07;;
24157;SDS011;12316;50.904;4.200;2022-10-13T01:19:34;17.52;;;10.88;;
24157;SDS011;12316;50.904;4.200;2022-10-13T01:25:12;17.75;;;10.50;;
24157;SDS011;12316;50.904;4.200;2022-10-13T01:30:48;19.05;;;10.80;;
24157;SDS011;12316;50.904;4.200;2022-10-13T01:33:40;15.00;;;10.50;;
24157;SDS011;12316;50.904;4.200;2022-10-13T01:36:18;21.65;;;10.65;;
24157;SDS011;12316;50.904;4.200;2022-10-13T01:39:15;19.02;;;10.75;;
24157;SDS011;12316;50.904;4.200;2022-10-13T01:41:53;18.20;;;11.30;;
24157;SDS011;12316;50.904;4.200;2022-10-13T01:44:26;19.85;;;11.45;;
24157;SDS011;12316;50.904;4.200;2022-10-13T01:46:56;19.50;;;11.73;;
24157;SDS011;12316;50.904;4.200;2022-10-13T01:49:23;20.33;;;11.35;;
24157;SDS011;12316;50.904;4.200;2022-10-13T01:51:54;17.88;;;11.20;;
24157;SDS011;12316;50.904;4.200;2022-10-13T01:54:24;21.65;;;12.32;;
24157;SDS011;12316;50.904;4.200;2022-10-13T01:56:53;20.58;;;11.65;;
24157;SDS011;12316;50.904;4.200;2022-10-13T01:59:19;17.90;;;11.25;;
24157;SDS011;12316;50.904;4.200;2022-10-13T02:10:07;20.13;;;12.77;;
24157;SDS011;12316;50.904;4.200;2022-10-13T02:12:49;19.33;;;12.32;;
24157;SDS011;12316;50.904;4.200;2022-10-13T02:15:21;18.02;;;12.23;;
24157;SDS011;12316;50.904;4.200;2022-10-13T02:17:51;20.40;;;12.32;;
24157;SDS011;12316;50.904;4.200;2022-10-13T02:20:18;25.00;;;12.48;;
24157;SDS011;12316;50.904;4.200;2022-10-13T02:22:45;19.23;;;12.35;;
24157;SDS011;12316;50.904;4.200;2022-10-13T02:25:15;19.42;;;12.10;;
24157;SDS011;12316;50.904;4.200;2022-10-13T02:27:40;23.88;;;13.35;;
24157;SDS011;12316;50.904;4.200;2022-10-13T02:30:06;22.15;;;12.80;;
24157;SDS011;12316;50.904;4.200;2022-10-13T02:32:32;21.70;;;12.98;;
24157;SDS011;12316;50.904;4.200;2022-10-13T02:34:58;23.90;;;13.27;;
24157;SDS011;12316;50.904;4.200;2022-10-13T02:37:23;18.60;;;12.32;;
24157;SDS011;12316;50.904;4.200;2022-10-13T02:39:50;20.45;;;13.10;;
24157;SDS011;12316;50.904;4.200;2022-10-13T02:42:16;19.52;;;13.95;;
24157;SDS011;12316;50.904;4.200;2022-10-13T02:44:42;20.58;;;12.85;;
24157;SDS011;12316;50.904;4.200;2022-10-13T02:47:07;22.52;;;13.70;;
24157;SDS011;12316;50.904;4.200;2022-10-13T02:49:33;18.55;;;13.13;;
24157;SDS011;12316;50.904;4.200;2022-10-13T02:51:58;24.00;;;13.98;;
24157;SDS011;12316;50.904;4.200;2022-10-13T02:54:24;22.83;;;14.05;;
24157;SDS011;12316;50.904;4.200;2022-10-13T02:56:49;23.10;;;13.70;;
24157;SDS011;12316;50.904;4.200;2022-10-13T02:59:15;20.23;;;13.90;;
24157;SDS011;12316;50.904;4.200;2022-10-13T03:01:40;20.52;;;12.77;;
24157;SDS011;12316;50.904;4.200;2022-10-13T03:04:08;18.13;;;12.48;;
24157;SDS011;12316;50.904;4.200;2022-10-13T03:06:34;18.95;;;13.48;;
24157;SDS011;12316;50.904;4.200;2022-10-13T03:08:59;21.23;;;13.60;;
24157;SDS011;12316;50.904;4.200;2022-10-13T03:11:25;21.33;;;13.50;;
24157;SDS011;12316;50.904;4.200;2022-10-13T03:13:51;23.20;;;14.10;;
24157;SDS011;12316;50.904;4.200;2022-10-13T03:16:16;21.40;;;13.95;;
24157;SDS011;12316;50.904;4.200;2022-10-13T03:18:42;22.65;;;14.18;;
24157;SDS011;12316;50.904;4.200;2022-10-13T03:21:08;22.75;;;14.05;;
24157;SDS011;12316;50.904;4.200;2022-10-13T03:23:34;26.13;;;15.63;;
24157;SDS011;12316;50.904;4.200;2022-10-13T03:26:00;22.08;;;15.63;;
24157;SDS011;12316;50.904;4.200;2022-10-13T03:28:26;27.65;;;16.08;;
24157;SDS011;12316;50.904;4.200;2022-10-13T03:31:02;25.27;;;15.98;;
24157;SDS011;12316;50.904;4.200;2022-10-13T03:33:30;22.80;;;15.10;;
24157;SDS011;12316;50.904;4.200;2022-10-13T03:35:59;30.05;;;15.88;;
24157;SDS011;12316;50.904;4.200;2022-10-13T03:38:26;24.83;;;16.40;;
24157;SDS011;12316;50.904;4.200;2022-10-13T03:40:53;26.13;;;16.58;;
24157;SDS011;12316;50.904;4.200;2022-10-13T03:43:19;23.58;;;17.00;;
24157;SDS011;12316;50.904;4.200;2022-10-13T03:45:52;28.45;;;17.10;;
24157;SDS011;12316;50.904;4.200;2022-10-13T03:48:19;25.60;;;17.27;;
24157;SDS011;12316;50.904;4.200;2022-10-13T03:50:45;22.73;;;16.10;;
24157;SDS011;12316;50.904;4.200;2022-10-13T03:53:10;28.83;;;16.75;;
24157;SDS011;12316;50.904;4.200;2022-10-13T03:55:36;24.75;;;16.45;;
24157;SDS011;12316;50.904;4.200;2022-10-13T03:58:02;24.13;;;16.20;;
24157;SDS011;12316;50.904;4.200;2022-10-13T04:00:27;28.88;;;17.33;;
24157;SDS011;12316;50.904;4.200;2022-10-13T04:02:53;36.65;;;17.92;;
24157;SDS011;12316;50.904;4.200;2022-10-13T04:05:18;31.52;;;17.85;;
24157;SDS011;12316;50.904;4.200;2022-10-13T04:07:44;32.00;;;18.20;;
24157;SDS011;12316;50.904;4.200;2022-10-13T04:10:09;25.00;;;17.25;;
24157;SDS011;12316;50.904;4.200;2022-10-13T04:12:35;25.92;;;17.08;;
24157;SDS011;12316;50.904;4.200;2022-10-13T04:15:01;27.88;;;18.27;;
24157;SDS011;12316;50.904;4.200;2022-10-13T04:17:26;27.00;;;17.13;;
24157;SDS011;12316;50.904;4.200;2022-10-13T04:19:52;29.40;;;17.10;;
24157;SDS011;12316;50.904;4.200;2022-10-13T04:22:17;31.48;;;18.38;;
24157;SDS011;12316;50.904;4.200;2022-10-13T04:24:43;28.23;;;17.73;;
24157;SDS011;12316;50.904;4.200;2022-10-13T04:27:08;29.10;;;18.70;;
24157;SDS011;12316;50.904;4.200;2022-10-13T04:29:34;29.40;;;18.55;;
24157;SDS011;12316;50.904;4.200;2022-10-13T04:31:59;28.13;;;18.10;;
24157;SDS011;12316;50.904;4.200;2022-10-13T04:34:25;30.63;;;18.92;;
24157;SDS011;12316;50.904;4.200;2022-10-13T04:36:50;33.58;;;18.90;;
24157;SDS011;12316;50.904;4.200;2022-10-13T04:39:16;34.03;;;19.63;;
24157;SDS011;12316;50.904;4.200;2022-10-13T04:41:42;29.27;;;18.88;;
24157;SDS011;12316;50.904;4.200;2022-10-13T04:44:08;34.20;;;19.73;;
24157;SDS011;12316;50.904;4.200;2022-10-13T04:46:34;34.20;;;19.10;;
24157;SDS011;12316;50.904;4.200;2022-10-13T04:48:59;33.47;;;18.27;;
24157;SDS011;12316;50.904;4.200;2022-10-13T04:51:25;28.67;;;18.75;;
24157;SDS011;12316;50.904;4.200;2022-10-13T04:53:55;28.75;;;18.60;;
24157;SDS011;12316;50.904;4.200;2022-10-13T04:56:21;25.10;;;17.75;;
24157;SDS011;12316;50.904;4.200;2022-10-13T04:58:47;26.90;;;18.48;;
24157;SDS011;12316;50.904;4.200;2022-10-13T05:01:14;24.25;;;17.65;;
24157;SDS011;12316;50.904;4.200;2022-10-13T05:03:42;29.55;;;18.40;;
24157;SDS011;12316;50.904;4.200;2022-10-13T05:06:17;29.05;;;18.10;;
24157;SDS011;12316;50.904;4.200;2022-10-13T05:08:45;27.13;;;17.10;;
24157;SDS011;12316;50.904;4.200;2022-10-13T05:11:11;25.58;;;17.05;;
24157;SDS011;12316;50.904;4.200;2022-10-13T05:13:37;28.65;;;17.90;;
24157;SDS011;12316;50.904;4.200;2022-10-13T05:16:06;28.90;;;18.60;;
24157;SDS011;12316;50.904;4.200;2022-10-13T05:18:33;28.38;;;17.75;;
24157;SDS011;12316;50.904;4.200;2022-10-13T05:21:08;32.17;;;18.95;;
24157;SDS011;12316;50.904;4.200;2022-10-13T05:23:35;31.42;;;17.75;;
24157;SDS011;12316;50.904;4.200;2022-10-13T05:26:02;31.63;;;18.70;;
24157;SDS011;12316;50.904;4.200;2022-10-13T05:28:29;26.23;;;16.48;;
24157;SDS011;12316;50.904;4.200;2022-10-13T05:30:55;34.90;;;18.23;;
24157;SDS011;12316;50.904;4.200;2022-10-13T05:33:21;26.77;;;16.67;;
24157;SDS011;12316;50.904;4.200;2022-10-13T05:35:46;32.95;;;18.08;;
24157;SDS011;12316;50.904;4.200;2022-10-13T05:38:12;31.00;;;17.80;;
24157;SDS011;12316;50.904;4.200;2022-10-13T05:40:37;28.75;;;17.98;;
24157;SDS011;12316;50.904;4.200;2022-10-13T05:43:03;25.42;;;17.50;;
24157;SDS011;12316;50.904;4.200;2022-10-13T05:45:28;30.23;;;17.63;;
24157;SDS011;12316;50.904;4.200;2022-10-13T05:47:58;30.98;;;16.92;;
24157;SDS011;12316;50.904;4.200;2022-10-13T05:50:23;28.55;;;17.27;;
24157;SDS011;12316;50.904;4.200;2022-10-13T05:52:49;28.45;;;18.20;;
24157;SDS011;12316;50.904;4.200;2022-10-13T05:55:15;24.92;;;17.20;;
24157;SDS011;12316;50.904;4.200;2022-10-13T05:57:44;28.55;;;17.05;;
24157;SDS011;12316;50.904;4.200;2022-10-13T06:00:14;28.45;;;16.88;;
24157;SDS011;12316;50.904;4.200;2022-10-13T06:02:44;27.17;;;16.73;;
24157;SDS011;12316;50.904;4.200;2022-10-13T06:05:27;27.10;;;16.42;;
24157;SDS011;12316;50.904;4.200;2022-10-13T06:07:55;24.15;;;16.48;;
24157;SDS011;12316;50.904;4.200;2022-10-13T06:10:22;33.60;;;16.83;;
24157;SDS011;12316;50.904;4.200;2022-10-13T06:12:47;27.38;;;16.60;;
24157;SDS011;12316;50.904;4.200;2022-10-13T06:15:13;25.27;;;16.63;;
24157;SDS011;12316;50.904;4.200;2022-10-13T06:17:38;28.55;;;17.00;;
24157;SDS011;12316;50.904;4.200;2022-10-13T06:20:04;26.08;;;16.80;;
24157;SDS011;12316;50.904;4.200;2022-10-13T06:22:31;26.02;;;16.92;;
24157;SDS011;12316;50.904;4.200;2022-10-13T06:24:57;24.23;;;15.38;;
24157;SDS011;12316;50.904;4.200;2022-10-13T06:27:23;28.48;;;17.13;;
24157;SDS011;12316;50.904;4.200;2022-10-13T06:29:48;26.98;;;16.23;;
24157;SDS011;12316;50.904;4.200;2022-10-13T06:32:14;30.10;;;17.35;;
24157;SDS011;12316;50.904;4.200;2022-10-13T06:34:40;28.35;;;17.23;;
24157;SDS011;12316;50.904;4.200;2022-10-13T06:37:05;25.02;;;16.83;;
24157;SDS011;12316;50.904;4.200;2022-10-13T06:39:31;25.92;;;16.83;;
24157;SDS011;12316;50.904;4.200;2022-10-13T06:41:57;27.60;;;15.95;;
24157;SDS011;12316;50.904;4.200;2022-10-13T06:44:22;22.95;;;16.23;;
24157;SDS011;12316;50.904;4.200;2022-10-13T06:46:48;25.83;;;15.75;;
24157;SDS011;12316;50.904;4.200;2022-10-13T06:49:13;25.88;;;17.23;;
24157;SDS011;12316;50.904;4.200;2022-10-13T06:51:39;32.42;;;16.95;;
24157;SDS011;12316;50.904;4.200;2022-10-13T06:54:04;27.83;;;16.00;;
24157;SDS011;12316;50.904;4.200;2022-10-13T06:56:30;27.02;;;16.58;;
24157;SDS011;12316;50.904;4.200;2022-10-13T06:58:56;24.60;;;15.55;;
24157;SDS011;12316;50.904;4.200;2022-10-13T07:01:21;30.02;;;16.30;;
24157;SDS011;12316;50.904;4.200;2022-10-13T07:03:48;30.80;;;16.55;;
24157;SDS011;12316;50.904;4.200;2022-10-13T07:06:14;23.63;;;15.60;;
24157;SDS011;12316;50.904;4.200;2022-10-13T07:08:39;22.83;;;15.82;;
24157;SDS011;12316;50.904;4.200;2022-10-13T07:11:06;27.83;;;15.88;;
24157;SDS011;12316;50.904;4.200;2022-10-13T07:13:32;23.75;;;15.43;;
24157;SDS011;12316;50.904;4.200;2022-10-13T07:16:00;28.42;;;15.70;;
24157;SDS011;12316;50.904;4.200;2022-10-13T07:18:27;28.77;;;15.63;;
24157;SDS011;12316;50.904;4.200;2022-10-13T07:20:52;23.42;;;15.32;;
24157;SDS011;12316;50.904;4.200;2022-10-13T07:23:18;26.17;;;15.63;;
24157;SDS011;12316;50.904;4.200;2022-10-13T07:25:43;26.30;;;15.55;;
24157;SDS011;12316;50.904;4.200;2022-10-13T07:28:09;23.77;;;14.88;;
24157;SDS011;12316;50.904;4.200;2022-10-13T07:30:37;26.50;;;16.50;;
24157;SDS011;12316;50.904;4.200;2022-10-13T07:33:03;28.17;;;15.75;;
24157;SDS011;12316;50.904;4.200;2022-10-13T07:35:28;22.92;;;15.15;;
24157;SDS011;12316;50.904;4.200;2022-10-13T07:37:54;26.17;;;15.27;;
24157;SDS011;12316;50.904;4.200;2022-10-13T07:40:20;23.58;;;14.52;;
24157;SDS011;12316;50.904;4.200;2022-10-13T07:42:45;22.33;;;14.40;;
24157;SDS011;12316;50.904;4.200;2022-10-13T07:45:11;21.90;;;14.23;;
24157;SDS011;12316;50.904;4.200;2022-10-13T07:47:36;22.13;;;13.90;;
24157;SDS011;12316;50.904;4.200;2022-10-13T07:50:02;26.67;;;14.15;;
24157;SDS011;12316;50.904;4.200;2022-10-13T07:52:28;23.73;;;14.60;;
24157;SDS011;12316;50.904;4.200;2022-10-13T07:54:54;19.40;;;13.40;;
24157;SDS011;12316;50.904;4.200;2022-10-13T07:57:19;24.45;;;13.10;;
24157;SDS011;12316;50.904;4.200;2022-10-13T07:59:45;23.17;;;13.27;;
24157;SDS011;12316;50.904;4.200;2022-10-13T08:02:11;21.85;;;13.32;;
24157;SDS011;12316;50.904;4.200;2022-10-13T08:04:36;20.83;;;13.15;;
24157;SDS011;12316;50.904;4.200;2022-10-13T08:07:03;24.27;;;13.05;;
24157;SDS011;12316;50.904;4.200;2022-10-13T08:09:29;24.35;;;12.98;;
24157;SDS011;12316;50.904;4.200;2022-10-13T08:11:55;18.77;;;12.77;;
24157;SDS011;12316;50.904;4.200;2022-10-13T08:14:21;17.75;;;12.13;;
24157;SDS011;12316;50.904;4.200;2022-10-13T08:16:46;16.95;;;11.95;;
24157;SDS011;12316;50.904;4.200;2022-10-13T08:19:12;17.77;;;11.30;;
24157;SDS011;12316;50.904;4.200;2022-10-13T08:21:39;18.83;;;11.25;;
24157;SDS011;12316;50.904;4.200;2022-10-13T08:24:06;17.35;;;11.63;;
24157;SDS011;12316;50.904;4.200;2022-10-13T08:26:36;16.52;;;11.57;;
24157;SDS011;12316;50.904;4.200;2022-10-13T08:29:02;20.58;;;11.68;;
24157;SDS011;12316;50.904;4.200;2022-10-13T08:31:28;18.52;;;12.18;;
24157;SDS011;12316;50.904;4.200;2022-10-13T08:33:53;19.65;;;11.90;;
24157;SDS011;12316;50.904;4.200;2022-10-13T08:36:19;18.52;;;11.55;;
24157;SDS011;12316;50.904;4.200;2022-10-13T08:38:44;17.58;;;11.20;;
24157;SDS011;12316;50.904;4.200;2022-10-13T08:41:20;20.80;;;11.90;;
24157;SDS011;12316;50.904;4.200;2022-10-13T08:43:50;17.58;;;10.43;;
24157;SDS011;12316;50.904;4.200;2022-10-13T08:46:23;16.80;;;11.10;;
24157;SDS011;12316;50.904;4.200;2022-10-13T08:48:51;16.48;;;9.73;;
24157;SDS011;12316;50.904;4.200;2022-10-13T08:51:17;16.35;;;9.75;;
24157;SDS011;12316;50.904;4.200;2022-10-13T08:53:44;15.30;;;11.10;;
24157;SDS011;12316;50.904;4.200;2022-10-13T08:58:45;18.15;;;10.82;;
24157;SDS011;12316;50.904;4.200;2022-10-13T09:03:50;18.85;;;10.52;;
24157;SDS011;12316;50.904;4.200;2022-10-13T09:06:22;16.30;;;10.52;;
24157;SDS011;12316;50.904;4.200;2022-10-13T09:08:56;18.30;;;10.68;;
24157;SDS011;12316;50.904;4.200;2022-10-13T09:11:25;15.18;;;10.25;;
24157;SDS011;12316;50.904;4.200;2022-10-13T09:13:58;14.50;;;8.48;;
24157;SDS011;12316;50.904;4.200;2022-10-13T09:16:48;15.75;;;10.13;;
24157;SDS011;12316;50.904;4.200;2022-10-13T09:21:50;17.35;;;10.43;;
24157;SDS011;12316;50.904;4.200;2022-10-13T09:24:19;15.93;;;9.60;;
24157;SDS011;12316;50.904;4.200;2022-10-13T09:26:46;16.77;;;10.40;;
24157;SDS011;12316;50.904;4.200;2022-10-13T09:29:23;13.65;;;9.75;;
24157;SDS011;12316;50.904;4.200;2022-10-13T09:31:50;18.70;;;10.32;;
24157;SDS011;12316;50.904;4.200;2022-10-13T09:34:31;14.98;;;10.45;;
24157;SDS011;12316;50.904;4.200;2022-10-13T09:36:59;14.48;;;8.88;;
24157;SDS011;12316;50.904;4.200;2022-10-13T09:39:27;18.55;;;10.23;;
24157;SDS011;12316;50.904;4.200;2022-10-13T09:42:07;13.43;;;9.52;;
24157;SDS011;12316;50.904;4.200;2022-10-13T09:44:44;17.80;;;10.32;;
24157;SDS011;12316;50.904;4.200;2022-10-13T09:47:18;14.85;;;9.50;;
24157;SDS011;12316;50.904;4.200;2022-10-13T09:52:39;15.48;;;9.75;;
24157;SDS011;12316;50.904;4.200;2022-10-13T09:55:24;15.60;;;9.90;;
24157;SDS011;12316;50.904;4.200;2022-10-13T09:57:53;17.95;;;9.70;;
24157;SDS011;12316;50.904;4.200;2022-10-13T10:00:24;14.60;;;8.95;;
24157;SDS011;12316;50.904;4.200;2022-10-13T10:02:56;20.27;;;9.85;;
24157;SDS011;12316;50.904;4.200;2022-10-13T10:05:58;18.05;;;9.65;;
24157;SDS011;12316;50.904;4.200;2022-10-13T10:10:55;21.02;;;10.25;;
24157;SDS011;12316;50.904;4.200;2022-10-13T10:13:24;18.30;;;9.88;;
24157;SDS011;12316;50.904;4.200;2022-10-13T10:19:02;15.20;;;10.45;;
24157;SDS011;12316;50.904;4.200;2022-10-13T10:27:18;15.48;;;9.50;;
24157;SDS011;12316;50.904;4.200;2022-10-13T10:30:04;16.27;;;10.55;;
24157;SDS011;12316;50.904;4.200;2022-10-13T10:43:23;17.73;;;11.77;;
24157;SDS011;12316;50.904;4.200;2022-10-13T10:45:57;21.00;;;12.10;;
24157;SDS011;12316;50.904;4.200;2022-10-13T10:48:25;20.40;;;11.77;;
24157;SDS011;12316;50.904;4.200;2022-10-13T10:50:59;19.88;;;12.25;;
24157;SDS011;12316;50.904;4.200;2022-10-13T10:55:55;17.70;;;12.05;;
24157;SDS011;12316;50.904;4.200;2022-10-13T10:58:39;18.33;;;11.90;;
24157;SDS011;12316;50.904;4.200;2022-10-13T11:06:49;19.02;;;12.18;;
24157;SDS011;12316;50.904;4.200;2022-10-13T11:09:17;21.70;;;12.30;;
24157;SDS011;12316;50.904;4.200;2022-10-13T11:14:48;21.85;;;13.63;;
24157;SDS011;12316;50.904;4.200;2022-10-13T11:17:27;19.77;;;13.27;;
24157;SDS011;12316;50.904;4.200;2022-10-13T11:19:53;23.20;;;12.85;;
24157;SDS011;12316;50.904;4.200;2022-10-13T11:22:21;20.00;;;13.43;;
24157;SDS011;12316;50.904;4.200;2022-10-13T11:24:53;19.83;;;13.57;;
24157;SDS011;12316;50.904;4.200;2022-10-13T11:27:23;21.15;;;13.23;;
24157;SDS011;12316;50.904;4.200;2022-10-13T11:30:02;20.17;;;12.60;;
24157;SDS011;12316;50.904;4.200;2022-10-13T11:51:07;17.23;;;11.77;;
24157;SDS011;12316;50.904;4.200;2022-10-13T11:53:43;20.25;;;12.35;;
24157;SDS011;12316;50.904;4.200;2022-10-13T11:56:31;17.67;;;12.48;;
24157;SDS011;12316;50.904;4.200;2022-10-13T11:59:18;20.02;;;12.43;;
24157;SDS011;12316;50.904;4.200;2022-10-13T12:01:56;19.83;;;12.45;;
24157;SDS011;12316;50.904;4.200;2022-10-13T12:05:19;18.63;;;12.80;;
24157;SDS011;12316;50.904;4.200;2022-10-13T12:07:49;18.08;;;13.00;;
24157;SDS011;12316;50.904;4.200;2022-10-13T12:10:21;24.98;;;13.07;;
24157;SDS011;12316;50.904;4.200;2022-10-13T12:12:53;19.58;;;12.52;;
24157;SDS011;12316;50.904;4.200;2022-10-13T12:17:51;19.48;;;12.43;;
24157;SDS011;12316;50.904;4.200;2022-10-13T12:20:20;22.25;;;13.35;;
24157;SDS011;12316;50.904;4.200;2022-10-13T12:22:49;22.85;;;13.25;;
24157;SDS011;12316;50.904;4.200;2022-10-13T12:25:17;18.90;;;13.23;;
24157;SDS011;12316;50.904;4.200;2022-10-13T12:27:48;21.65;;;13.95;;
24157;SDS011;12316;50.904;4.200;2022-10-13T12:30:20;21.42;;;14.05;;
24157;SDS011;12316;50.904;4.200;2022-10-13T12:32:48;23.02;;;14.40;;
24157;SDS011;12316;50.904;4.200;2022-10-13T12:35:19;20.02;;;13.80;;
24157;SDS011;12316;50.904;4.200;2022-10-13T12:37:53;18.63;;;13.77;;
24157;SDS011;12316;50.904;4.200;2022-10-13T12:40:20;24.17;;;14.52;;
24157;SDS011;12316;50.904;4.200;2022-10-13T12:42:47;19.75;;;15.35;;
24157;SDS011;12316;50.904;4.200;2022-10-13T12:45:17;19.33;;;13.90;;
24157;SDS011;12316;50.904;4.200;2022-10-13T12:50:30;21.45;;;14.25;;
24157;SDS011;12316;50.904;4.200;2022-10-13T12:55:32;20.83;;;14.48;;
24157;SDS011;12316;50.904;4.200;2022-10-13T12:57:59;23.35;;;15.60;;
24157;SDS011;12316;50.904;4.200;2022-10-13T13:00:26;20.55;;;14.93;;
24157;SDS011;12316;50.904;4.200;2022-10-13T13:03:03;21.20;;;14.75;;
24157;SDS011;12316;50.904;4.200;2022-10-13T13:08:00;22.90;;;14.88;;
24157;SDS011;12316;50.904;4.200;2022-10-13T13:10:30;20.30;;;14.10;;
24157;SDS011;12316;50.904;4.200;2022-10-13T13:13:00;19.55;;;14.77;;
24157;SDS011;12316;50.904;4.200;2022-10-13T13:15:37;18.02;;;14.10;;
24157;SDS011;12316;50.904;4.200;2022-10-13T13:21:00;20.30;;;14.02;;
24157;SDS011;12316;50.904;4.200;2022-10-13T13:23:28;14.85;;;13.25;;
24157;SDS011;12316;50.904;4.200;2022-10-13T13:26:14;17.48;;;13.38;;
24157;SDS011;12316;50.904;4.200;2022-10-13T13:28:46;18.23;;;13.68;;
24157;SDS011;12316;50.904;4.200;2022-10-13T13:31:14;19.80;;;14.40;;
24157;SDS011;12316;50.904;4.200;2022-10-13T13:33:41;18.23;;;13.82;;
24157;SDS011;12316;50.904;4.200;2022-10-13T13:36:14;19.90;;;14.45;;
24157;SDS011;12316;50.904;4.200;2022-10-13T13:38:42;15.90;;;12.45;;
24157;SDS011;12316;50.904;4.200;2022-10-13T13:41:09;20.17;;;14.25;;
24157;SDS011;12316;50.904;4.200;2022-10-13T13:43:35;18.42;;;13.82;;
24157;SDS011;12316;50.904;4.200;2022-10-13T13:46:01;17.15;;;13.40;;
24157;SDS011;12316;50.904;4.200;2022-10-13T13:48:28;18.45;;;14.30;;
24157;SDS011;12316;50.904;4.200;2022-10-13T13:50:54;22.95;;;14.88;;
24157;SDS011;12316;50.904;4.200;2022-10-13T13:53:19;20.38;;;14.82;;
24157;SDS011;12316;50.904;4.200;2022-10-13T13:55:45;19.83;;;14.70;;
24157;SDS011;12316;50.904;4.200;2022-10-13T13:58:11;20.58;;;14.60;;
24157;SDS011;12316;50.904;4.200;2022-10-13T14:00:37;21.10;;;15.38;;
24157;SDS011;12316;50.904;4.200;2022-10-13T14:03:03;21.17;;;14.50;;
24157;SDS011;12316;50.904;4.200;2022-10-13T14:05:28;21.50;;;15.05;;
24157;SDS011;12316;50.904;4.200;2022-10-13T14:07:55;21.88;;;15.27;;
24157;SDS011;12316;50.904;4.200;2022-10-13T14:10:21;23.27;;;14.45;;
24157;SDS011;12316;50.904;4.200;2022-10-13T14:12:48;21.10;;;15.27;;
24157;SDS011;12316;50.904;4.200;2022-10-13T14:15:14;22.27;;;15.68;;
24157;SDS011;12316;50.904;4.200;2022-10-13T14:17:40;20.98;;;15.25;;
24157;SDS011;12316;50.904;4.200;2022-10-13T14:20:06;23.50;;;15.88;;
24157;SDS011;12316;50.904;4.200;2022-10-13T14:22:31;21.58;;;15.88;;
24157;SDS011;12316;50.904;4.200;2022-10-13T14:24:57;23.42;;;15.65;;
24157;SDS011;12316;50.904;4.200;2022-10-13T14:27:23;19.35;;;15.32;;
24157;SDS011;12316;50.904;4.200;2022-10-13T14:29:48;21.67;;;15.63;;
24157;SDS011;12316;50.904;4.200;2022-10-13T14:32:14;28.30;;;15.43;;
24157;SDS011;12316;50.904;4.200;2022-10-13T14:34:40;25.60;;;16.08;;
24157;SDS011;12316;50.904;4.200;2022-10-13T14:37:05;19.92;;;15.20;;
24157;SDS011;12316;50.904;4.200;2022-10-13T14:39:31;20.00;;;15.57;;
24157;SDS011;12316;50.904;4.200;2022-10-13T14:41:56;20.23;;;15.00;;
24157;SDS011;12316;50.904;4.200;2022-10-13T14:44:22;22.42;;;15.85;;
24157;SDS011;12316;50.904;4.200;2022-10-13T14:46:48;21.55;;;14.68;;
24157;SDS011;12316;50.904;4.200;2022-10-13T14:49:13;22.33;;;15.60;;
24157;SDS011;12316;50.904;4.200;2022-10-13T14:51:39;19.88;;;15.30;;
24157;SDS011;12316;50.904;4.200;2022-10-13T14:54:05;22.73;;;14.88;;
24157;SDS011;12316;50.904;4.200;2022-10-13T14:56:31;20.77;;;14.30;;
24157;SDS011;12316;50.904;4.200;2022-10-13T14:58:58;18.27;;;14.27;;
24157;SDS011;12316;50.904;4.200;2022-10-13T15:01:25;16.50;;;13.55;;
24157;SDS011;12316;50.904;4.200;2022-10-13T15:03:51;21.40;;;13.63;;
24157;SDS011;12316;50.904;4.200;2022-10-13T15:06:21;17.02;;;13.07;;
24157;SDS011;12316;50.904;4.200;2022-10-13T15:08:48;14.32;;;11.57;;
24157;SDS011;12316;50.904;4.200;2022-10-13T15:11:15;14.07;;;10.85;;
24157;SDS011;12316;50.904;4.200;2022-10-13T15:13:42;17.30;;;11.98;;
24157;SDS011;12316;50.904;4.200;2022-10-13T15:16:21;19.70;;;11.82;;
24157;SDS011;12316;50.904;4.200;2022-10-13T15:18:49;15.65;;;11.35;;
24157;SDS011;12316;50.904;4.200;2022-10-13T15:21:15;16.20;;;11.23;;
24157;SDS011;12316;50.904;4.200;2022-10-13T15:23:41;16.08;;;11.60;;
24157;SDS011;12316;50.904;4.200;2022-10-13T15:26:07;14.75;;;11.18;;
24157;SDS011;12316;50.904;4.200;2022-10-13T15:28:35;14.05;;;10.70;;
24157;SDS011;12316;50.904;4.200;2022-10-13T15:31:05;18.33;;;10.38;;
24157;SDS011;12316;50.904;4.200;2022-10-13T15:33:31;16.77;;;10.10;;
24157;SDS011;12316;50.904;4.200;2022-10-13T15:35:57;13.60;;;9.93;;
24157;SDS011;12316;50.904;4.200;2022-10-13T15:38:23;13.02;;;10.13;;
24157;SDS011;12316;50.904;4.200;2022-10-13T15:40:50;13.60;;;10.10;;
24157;SDS011;12316;50.904;4.200;2022-10-13T15:43:16;12.68;;;10.50;;
24157;SDS011;12316;50.904;4.200;2022-10-13T15:45:42;15.05;;;9.80;;
24157;SDS011;12316;50.904;4.200;2022-10-13T15:48:19;13.38;;;9.65;;
24157;SDS011;12316;50.904;4.200;2022-10-13T15:50:45;12.70;;;9.88;;
24157;SDS011;12316;50.904;4.200;2022-10-13T15:53:11;13.48;;;10.05;;
24157;SDS011;12316;50.904;4.200;2022-10-13T15:55:37;12.27;;;9.90;;
24157;SDS011;12316;50.904;4.200;2022-10-13T15:58:04;14.15;;;9.90;;
24157;SDS011;12316;50.904;4.200;2022-10-13T16:00:30;13.50;;;9.68;;
24157;SDS011;12316;50.904;4.200;2022-10-13T16:02:55;11.85;;;9.77;;
24157;SDS011;12316;50.904;4.200;2022-10-13T16:05:21;12.75;;;9.45;;
24157;SDS011;12316;50.904;4.200;2022-10-13T16:07:47;10.57;;;9.48;;